| time (UTC) | temp C | wind direction | speed KPH | gust KPH | rain 1hr cm | rain 24hr cm | rain mn cm | humidity % | barometer mb |
| 20260505100042 | 11 | 360 | 16.1 | 29.0 | 0.00 | 0.03 | 0.00 | 53 | 1007.9 |
| 20260505094540 | 11 | 360 | 22.5 | 38.6 | 0.00 | 0.03 | 0.00 | 52 | 1007.2 |
| 20260505093049 | 11 | 360 | 20.9 | 35.4 | 0.00 | 0.03 | 0.00 | 52 | 1007.4 |
| 20260505091538 | 12 | 360 | 25.7 | 40.2 | 0.00 | 0.03 | 0.00 | 51 | 1007.2 |
| 20260505090036 | 12 | 360 | 27.4 | 41.8 | 0.00 | 0.03 | 0.00 | 51 | 1007.0 |
| 20260505084532 | 12 | 360 | 22.5 | 33.8 | 0.00 | 0.03 | 0.00 | 52 | 1007.1 |
| 20260505083033 | 12 | 360 | 20.9 | 33.8 | 0.00 | 0.03 | 0.00 | 52 | 1007.3 |
| 20260505081529 | 12 | 360 | 24.1 | 35.4 | 0.00 | 0.03 | 0.00 | 51 | 1007.0 |
| 20260505080029 | 12 | 360 | 24.1 | 40.2 | 0.00 | 0.03 | 0.00 | 52 | 1007.3 |
| 20260505074521 | 12 | 360 | 14.5 | 27.4 | 0.00 | 0.03 | 0.00 | 55 | 1007.5 |
| 20260505073017 | 13 | 360 | 22.5 | 41.8 | 0.00 | 0.03 | 0.00 | 53 | 1006.9 |
| 20260505071514 | 13 | 360 | 20.9 | 40.2 | 0.00 | 0.03 | 0.00 | 53 | 1006.8 |
| 20260505070020 | 13 | 360 | 14.5 | 35.4 | 0.00 | 0.03 | 0.00 | 53 | 1006.6 |
| 20260505064512 | 14 | 360 | 27.4 | 38.6 | 0.00 | 0.03 | 0.00 | 52 | 1006.0 |
| 20260505063004 | 14 | 360 | 22.5 | 37.0 | 0.00 | 0.03 | 0.00 | 52 | 1005.8 |
| 20260505061503 | 14 | 360 | 25.7 | 41.8 | 0.00 | 0.03 | 0.00 | 52 | 1005.7 |
| 20260505054559 | 15 | 360 | 20.9 | 29.0 | 0.03 | 0.03 | 0.00 | 55 | 1005.4 |
| 20260505053054 | 15 | 360 | 11.3 | 17.7 | 0.03 | 0.03 | 0.00 | 62 | 1005.5 |
| 20260505051550 | 15 | 360 | 9.7 | 20.9 | 0.03 | 0.03 | 0.00 | 61 | 1005.9 |
| 20260505041546 | 19 | 360 | 22.5 | 38.6 | 0.00 | 0.00 | 0.00 | 42 | 1004.0 |
| 20260505040057 | 20 | 360 | 24.1 | 38.6 | 0.00 | 0.00 | 0.00 | 42 | 1003.6 |
| 20260505034544 | 20 | 360 | 20.9 | 33.8 | 0.00 | 0.00 | 0.00 | 43 | 1003.8 |
| 20260505033040 | 20 | 360 | 19.3 | 30.6 | 0.00 | 0.00 | 0.00 | 44 | 1003.4 |
| 20260505031549 | 21 | 360 | 22.5 | 37.0 | 0.00 | 0.00 | 0.00 | 43 | 1003.4 |
| 20260505030043 | 21 | 360 | 24.1 | 33.8 | 0.00 | 0.00 | 0.00 | 47 | 1002.7 |
| 20260505024538 | 20 | 348 | 17.7 | 24.1 | 0.00 | 0.00 | 0.00 | 62 | 1002.2 |
| 20260505023037 | 21 | 360 | 1.6 | 6.4 | 0.00 | 0.00 | 0.00 | 60 | 1001.5 |
| 20260505021538 | 22 | 130 | 4.8 | 8.0 | 0.00 | 0.00 | 0.00 | 57 | 1001.3 |
| 20260505020041 | 22 | 130 | 1.6 | 4.8 | 0.00 | 0.00 | 0.00 | 58 | 1001.2 |
| 20260505014541 | 22 | 129 | 4.8 | 6.4 | 0.00 | 0.00 | 0.00 | 56 | 1001.0 |
| 20260505013035 | 22 | 129 | 3.2 | 4.8 | 0.00 | 0.00 | 0.00 | 57 | 1000.9 |
| 20260505011538 | 23 | 130 | 3.2 | 4.8 | 0.00 | 0.00 | 0.00 | 55 | 1000.6 |
| 20260505010036 | 23 | 130 | 3.2 | 6.4 | 0.00 | 0.00 | 0.00 | 54 | 1000.6 |
| 20260505004533 | 24 | 130 | 3.2 | 4.8 | 0.00 | 0.00 | 0.00 | 52 | 1000.7 |
| 20260505003034 | 25 | 130 | 3.2 | 6.4 | 0.00 | 0.00 | 0.00 | 50 | 1000.4 |
| 20260505001532 | 25 | 132 | 4.8 | 11.3 | 0.00 | 0.00 | 0.00 | 48 | 1000.6 |
| 20260505000043 | 26 | 123 | 9.7 | 14.5 | 0.00 | 0.00 | 0.00 | 46 | 1000.6 |
| 20260504234529 | 26 | 132 | 3.2 | 12.9 | 0.00 | 0.00 | 0.00 | 46 | 1000.5 |
| 20260504233029 | 26 | 360 | 9.7 | 16.1 | 0.00 | 0.00 | 0.00 | 43 | 1000.7 |
| 20260504231528 | 27 | 360 | 6.4 | 9.7 | 0.00 | 0.00 | 0.00 | 40 | 1000.8 |
| 20260504230028 | 27 | 360 | 4.8 | 9.7 | 0.00 | 0.00 | 0.00 | 39 | 1000.6 |
| 20260504224527 | 27 | 360 | 4.8 | 12.9 | 0.00 | 0.00 | 0.00 | 41 | 1000.5 |
| 20260504223027 | 27 | 360 | 6.4 | 16.1 | 0.00 | 0.00 | 0.00 | 39 | 1000.5 |
| 20260504221528 | 27 | 360 | 6.4 | 12.9 | 0.00 | 0.00 | 0.00 | 40 | 1000.4 |
| 20260504220040 | 27 | 360 | 8.0 | 16.1 | 0.00 | 0.00 | 0.00 | 41 | 1000.5 |
| 20260504214524 | 27 | 360 | 6.4 | 14.5 | 0.00 | 0.00 | 0.00 | 41 | 1000.7 |
| 20260504213022 | 27 | 360 | 8.0 | 14.5 | 0.00 | 0.00 | 0.00 | 40 | 1000.6 |
| 20260504211520 | 28 | 360 | 4.8 | 12.9 | 0.00 | 0.00 | 0.00 | 40 | 1000.9 |
| 20260504210019 | 28 | 130 | 4.8 | 12.9 | 0.00 | 0.00 | 0.00 | 36 | 1001.1 |
| 20260504204528 | 27 | 360 | 3.2 | 8.0 | 0.00 | 0.00 | 0.00 | 36 | 1001.2 |
| 20260504203015 | 27 | 360 | 3.2 | 14.5 | 0.00 | 0.00 | 0.00 | 35 | 1001.4 |
| 20260504201514 | 28 | 360 | 3.2 | 8.0 | 0.00 | 0.00 | 0.00 | 33 | 1001.6 |
| 20260504200012 | 28 | 360 | 6.4 | 14.5 | 0.00 | 0.00 | 0.00 | 35 | 1001.7 |
| 20260504194508 | 28 | 127 | 3.2 | 6.4 | 0.00 | 0.00 | 0.00 | 36 | 1001.8 |
| 20260504193005 | 28 | 360 | 6.4 | 14.5 | 0.00 | 0.00 | 0.00 | 35 | 1001.8 |
| 20260504191502 | 27 | 360 | 4.8 | 12.9 | 0.00 | 0.00 | 0.00 | 33 | 1002.0 |
| 20260504190006 | 27 | 360 | 4.8 | 8.0 | 0.00 | 0.00 | 0.00 | 35 | 1002.1 |
| 20260504184600 | 27 | 360 | 0.0 | 6.4 | 0.00 | 0.00 | 0.00 | 42 | 1002.1 |
| 20260504183102 | 26 | 27 | 0.0 | 6.4 | 0.00 | 0.00 | 0.00 | 39 | 1002.1 |
| 20260504181557 | 26 | 360 | 1.6 | 12.9 | 0.00 | 0.00 | 0.00 | 37 | 1002.1 |
| 20260504180136 | 26 | 360 | 4.8 | 9.7 | 0.00 | 0.00 | 0.00 | 42 | 1002.2 |
| 20260504174552 | 26 | 32 | 3.2 | 9.7 | 0.00 | 0.00 | 0.00 | 45 | 1002.3 |
| 20260504173049 | 25 | 360 | 4.8 | 16.1 | 0.00 | 0.00 | 0.00 | 44 | 1002.3 |
| 20260504171550 | 25 | 360 | 3.2 | 9.7 | 0.00 | 0.00 | 0.00 | 51 | 1002.2 |
| 20260504120108 | 14 | 360 | 9.7 | 19.3 | 0.00 | 0.00 | 0.00 | 70 | 1002.1 |